createdAt,value
2024-03-05T00:01:47.084Z,101015.84
2024-03-05T00:04:17.954Z,101009.97
2024-03-05T00:06:50.405Z,101020.22
2024-03-05T00:09:21.224Z,101015.03
2024-03-05T00:11:52.193Z,101018.44
2024-03-05T00:14:23.454Z,101019.41
2024-03-05T00:16:53.836Z,101018.59
2024-03-05T00:19:24.886Z,101026.91
2024-03-05T00:21:55.485Z,101030.47
2024-03-05T00:24:26.741Z,101030.16
2024-03-05T00:26:57.032Z,101037.81
2024-03-05T00:29:27.561Z,101041.38
2024-03-05T00:31:58.438Z,101048.06
2024-03-05T00:34:29.783Z,101043.66
2024-03-05T00:37:01.275Z,101045.28
2024-03-05T00:39:32.118Z,101050.03
2024-03-05T00:42:02.946Z,101060.91
2024-03-05T00:44:33.937Z,101068.75
2024-03-05T00:47:04.732Z,101070.69
2024-03-05T00:49:36.186Z,101067.63
2024-03-05T00:52:07.327Z,101074.44
2024-03-05T00:54:37.965Z,101074.94
2024-03-05T00:57:09.205Z,101081.63
2024-03-05T00:59:39.515Z,101084.69
2024-03-05T01:02:10.541Z,101091.06
2024-03-05T01:04:42.206Z,101092.69
2024-03-05T01:07:13.718Z,101099.03
2024-03-05T01:09:44.698Z,101106.84
2024-03-05T01:12:15.710Z,101102.28
2024-03-05T01:14:47.617Z,101109.78
2024-03-05T01:17:18.395Z,101120.19
2024-03-05T01:19:50.197Z,101113.53
2024-03-05T01:22:21.085Z,101125.72
2024-03-05T01:24:55.311Z,101118.41
2024-03-05T01:27:28.138Z,101126.72
2024-03-05T01:29:58.921Z,101122.81
2024-03-05T01:32:32.116Z,101127.53
2024-03-05T01:35:03.928Z,101132.44
2024-03-05T01:37:34.703Z,101137.78
2024-03-05T01:40:07.779Z,101136.97
2024-03-05T01:42:38.788Z,101140.06
2024-03-05T01:45:10.179Z,101145.59
2024-03-05T01:47:41.164Z,101142.69
2024-03-05T01:50:13.209Z,101141.69
2024-03-05T01:52:44.953Z,101146.09
2024-03-05T01:55:19.604Z,101146.44
2024-03-05T01:57:53.662Z,101155.22
2024-03-05T02:00:24.701Z,101155.22
2024-03-05T02:02:55.851Z,101158.97
2024-03-05T02:05:27.650Z,101160.28
2024-03-05T02:07:58.584Z,101162.72
2024-03-05T02:10:30.633Z,101162.88
2024-03-05T02:13:01.561Z,101165.19
2024-03-05T02:15:33.003Z,101158.97
2024-03-05T02:18:04.340Z,101160.59
2024-03-05T02:20:35.104Z,101166.13
2024-03-05T02:23:08.761Z,101170.03
2024-03-05T02:25:39.800Z,101156.69
2024-03-05T02:28:11.974Z,101163.06
2024-03-05T02:30:43.894Z,101165.97
2024-03-05T02:33:17.003Z,101164.69
2024-03-05T02:35:50.169Z,101170.38
2024-03-05T02:38:21.465Z,101175.59
2024-03-05T02:40:52.181Z,101181.94
2024-03-05T02:43:24.535Z,101174.78
2024-03-05T02:45:55.554Z,101169.75
2024-03-05T02:48:26.663Z,101169.75
2024-03-05T02:50:57.961Z,101172.00
2024-03-05T02:53:29.102Z,101174.94
2024-03-05T02:55:59.539Z,101170.22
2024-03-05T02:58:30.438Z,101170.69
2024-03-05T03:01:01.288Z,101174.63
2024-03-05T03:03:33.004Z,101166.78
2024-03-05T03:06:05.030Z,101173.94
2024-03-05T03:08:36.749Z,101174.78
2024-03-05T03:11:07.776Z,101175.59
2024-03-05T03:13:39.058Z,101172.31
2024-03-05T03:16:09.795Z,101177.41
2024-03-05T03:18:40.580Z,101167.63
2024-03-05T03:21:11.312Z,101167.28
2024-03-05T03:23:42.106Z,101158.66
2024-03-05T03:26:13.091Z,101153.63
2024-03-05T03:28:44.068Z,101157.97
2024-03-05T03:31:15.299Z,101154.41
2024-03-05T03:33:45.552Z,101153.28
2024-03-05T03:36:27.220Z,101148.22
2024-03-05T03:38:57.919Z,101144.13
2024-03-05T03:41:28.667Z,101144.97
2024-03-05T03:43:59.493Z,101130.13
2024-03-05T03:46:30.315Z,101142.84
2024-03-05T03:49:01.208Z,101130.97
2024-03-05T03:51:32.748Z,101127.69
2024-03-05T03:54:03.365Z,101119.88
2024-03-05T03:56:34.315Z,101121.97
2024-03-05T03:59:05.055Z,101107.84
2024-03-05T04:01:37.991Z,101107.50
2024-03-05T04:04:09.402Z,101103.91
2024-03-05T04:06:42.010Z,101092.19
2024-03-05T04:09:13.125Z,101095.75
2024-03-05T04:11:47.696Z,101092.34
2024-03-05T04:14:19.031Z,101090.84
2024-03-05T04:16:49.834Z,101089.22
2024-03-05T04:19:20.346Z,101085.81
2024-03-05T04:21:51.184Z,101077.34
2024-03-05T04:24:22.018Z,101069.19
2024-03-05T04:26:56.326Z,101066.06
2024-03-05T04:29:33.583Z,101058.22
2024-03-05T04:32:12.089Z,101057.44
2024-03-05T04:34:45.577Z,101043.22
2024-03-05T04:37:17.375Z,101035.91
2024-03-05T04:39:49.988Z,101029.22
2024-03-05T04:42:21.397Z,101028.56
2024-03-05T04:44:52.451Z,101025.28
2024-03-05T04:47:24.739Z,101015.34
2024-03-05T04:49:55.592Z,101023.81
2024-03-05T04:52:26.389Z,101006.38
2024-03-05T04:54:58.685Z,101007.31
2024-03-05T04:57:29.524Z,101004.53
2024-03-05T05:00:01.670Z,101003.22
2024-03-05T05:02:32.740Z,100998.03
2024-03-05T05:05:07.359Z,100983.03
2024-03-05T05:07:38.235Z,100982.69
2024-03-05T05:10:11.765Z,100972.59
2024-03-05T05:12:43.715Z,100970.44
2024-03-05T05:15:15.905Z,100974.22
2024-03-05T05:17:48.311Z,100969.47
2024-03-05T05:20:19.066Z,100964.06
2024-03-05T05:22:49.952Z,100957.72
2024-03-05T05:25:23.451Z,100956.91
2024-03-05T05:27:54.872Z,100957.88
2024-03-05T05:30:27.159Z,100952.44
2024-03-05T05:32:58.536Z,100942.31
2024-03-05T05:35:29.256Z,100937.94
2024-03-05T05:38:01.018Z,100935.16
2024-03-05T05:40:32.541Z,100925.22
2024-03-05T05:43:03.252Z,100912.19
2024-03-05T05:45:34.224Z,100920.63
2024-03-05T05:48:05.921Z,100911.84
2024-03-05T05:50:37.737Z,100905.81
2024-03-05T05:53:10.337Z,100904.66
2024-03-05T05:55:41.384Z,100899.28
2024-03-05T05:58:12.195Z,100892.44
2024-03-05T06:00:43.650Z,100889.19
2024-03-05T06:03:14.865Z,100886.56
2024-03-05T06:05:46.624Z,100881.34
2024-03-05T06:08:18.204Z,100871.56
2024-03-05T06:10:49.677Z,100866.00
2024-03-05T06:13:20.036Z,100860.13
2024-03-05T06:15:52.477Z,100858.50
2024-03-05T06:18:23.240Z,100849.19
2024-03-05T06:20:55.127Z,100837.59
2024-03-05T06:23:25.924Z,100834.16
2024-03-05T06:25:57.452Z,100831.41
2024-03-05T06:28:29.322Z,100833.38
2024-03-05T06:31:00.067Z,100826.31
2024-03-05T06:33:31.707Z,100816.88
2024-03-05T06:36:02.504Z,100815.25
2024-03-05T06:38:33.367Z,100814.44
2024-03-05T06:41:04.735Z,100802.78
2024-03-05T06:43:40.580Z,100798.88
2024-03-05T06:46:16.924Z,100798.06
2024-03-05T06:48:51.228Z,100791.00
2024-03-05T06:51:35.124Z,100787.06
2024-03-05T06:54:23.888Z,100784.44
2024-03-05T06:56:55.679Z,100772.22
2024-03-05T06:59:27.891Z,100770.34
2024-03-05T07:01:59.524Z,100767.56
2024-03-05T07:04:30.879Z,100756.50
2024-03-05T07:07:02.699Z,100748.16
2024-03-05T07:09:35.524Z,100741.47
2024-03-05T07:12:06.722Z,100741.47
2024-03-05T07:14:37.035Z,100735.91
2024-03-05T07:17:10.138Z,100724.34
2024-03-05T07:19:41.532Z,100725.19
2024-03-05T07:22:12.621Z,100719.97
2024-03-05T07:24:42.908Z,100714.41
2024-03-05T07:27:15.605Z,100723.22
2024-03-05T07:29:46.289Z,100712.94
2024-03-05T07:32:19.371Z,100702.06
2024-03-05T07:34:50.216Z,100696.31
2024-03-05T07:37:20.745Z,100692.59
2024-03-05T07:39:51.474Z,100685.06
2024-03-05T07:42:22.120Z,100678.38
2024-03-05T07:44:52.593Z,100680.81
2024-03-05T07:47:23.114Z,100668.91
2024-03-05T07:49:53.901Z,100674.13
2024-03-05T07:52:25.190Z,100674.91
2024-03-05T07:54:56.093Z,100676.06
2024-03-05T07:57:26.814Z,100664.50
2024-03-05T07:59:57.529Z,100668.56
2024-03-05T08:02:28.866Z,100661.03
2024-03-05T08:04:59.664Z,100661.50
2024-03-05T08:07:30.523Z,100651.94
2024-03-05T08:10:01.367Z,100635.41
2024-03-05T08:12:32.243Z,100642.44
2024-03-05T08:15:03.120Z,100642.09
2024-03-05T08:17:40.271Z,100641.75
2024-03-05T08:20:11.668Z,100631.47
2024-03-05T08:22:42.818Z,100639.78
2024-03-05T08:25:13.174Z,100629.16
2024-03-05T08:27:47.807Z,100627.06
2024-03-05T08:30:27.657Z,100620.38
2024-03-05T08:32:58.898Z,100614.16
2024-03-05T08:35:33.072Z,100619.00
2024-03-05T08:38:03.839Z,100612.53
2024-03-05T08:40:39.700Z,100610.44
2024-03-05T08:43:12.879Z,100601.75
2024-03-05T08:45:43.853Z,100594.16
2024-03-05T08:48:14.699Z,100589.97
2024-03-05T08:50:45.598Z,100608.78
2024-03-05T08:53:17.717Z,100597.69
2024-03-05T08:55:48.484Z,100594.25
2024-03-05T08:58:19.287Z,100592.78
2024-03-05T09:00:54.328Z,100596.34
2024-03-05T09:03:25.137Z,100591.38
2024-03-05T09:05:56.562Z,100586.16
2024-03-05T09:08:27.230Z,100587.09
2024-03-05T09:10:58.324Z,100588.13
2024-03-05T09:13:29.543Z,100585.03
2024-03-05T09:16:01.454Z,100594.50
2024-03-05T09:18:32.871Z,100598.44
2024-03-05T09:21:03.571Z,100591.72
2024-03-05T09:23:34.597Z,100597.59
2024-03-05T09:26:05.650Z,100596.72
2024-03-05T09:28:38.111Z,100595.19
2024-03-05T09:31:09.532Z,100593.22
2024-03-05T09:33:42.290Z,100600.06
2024-03-05T09:36:13.231Z,100603.63
2024-03-05T09:38:44.318Z,100606.53
2024-03-05T09:41:16.343Z,100608.56
2024-03-05T09:43:48.844Z,100609.88
2024-03-05T09:46:21.502Z,100605.81
2024-03-05T09:48:53.016Z,100611.81
2024-03-05T09:51:26.058Z,100601.53
2024-03-05T09:53:57.288Z,100612.66
2024-03-05T09:56:36.390Z,100601.19
2024-03-05T09:59:11.426Z,100612.28
2024-03-05T10:01:47.660Z,100604.06
2024-03-05T10:04:20.782Z,100611.50
2024-03-05T10:06:57.395Z,100608.72
2024-03-05T10:09:28.783Z,100611.81
2024-03-05T10:12:03.123Z,100611.50
2024-03-05T10:14:34.912Z,100606.38
2024-03-05T10:17:05.901Z,100607.09
2024-03-05T10:19:46.318Z,100598.75
2024-03-05T10:22:18.010Z,100608.56
2024-03-05T10:24:49.341Z,100606.97
2024-03-05T10:27:31.329Z,100604.19
2024-03-05T10:30:02.224Z,100587.44
2024-03-05T10:32:32.870Z,100604.44
2024-03-05T10:35:04.636Z,100602.81
2024-03-05T10:37:35.466Z,100600.97
2024-03-05T10:40:12.099Z,100603.75
2024-03-05T10:42:45.900Z,100596.22
2024-03-05T10:45:18.132Z,100599.00
2024-03-05T10:47:52.688Z,100591.47
2024-03-05T10:50:24.406Z,100600.16
2024-03-05T10:52:56.033Z,100603.28
2024-03-05T10:55:28.691Z,100596.22
2024-03-05T10:58:35.907Z,100602.56
2024-03-05T11:01:10.591Z,100600.84
2024-03-05T11:03:44.658Z,100602.81
2024-03-05T11:06:20.593Z,100602.00
2024-03-05T11:08:52.646Z,100605.50
2024-03-05T11:11:27.487Z,100608.38
2024-03-05T11:14:01.765Z,100607.09
2024-03-05T11:16:37.182Z,100620.63
2024-03-05T11:19:16.859Z,100619.47
2024-03-05T11:21:47.933Z,100619.47
2024-03-05T11:24:19.542Z,100619.81
2024-03-05T11:26:50.182Z,100624.56
2024-03-05T11:29:20.947Z,100625.03
2024-03-05T11:31:54.479Z,100626.97
2024-03-05T11:34:26.299Z,100622.94
2024-03-05T11:37:13.304Z,100623.41
2024-03-05T11:39:46.711Z,100631.25
2024-03-05T11:42:22.112Z,100642.38
2024-03-05T11:44:53.517Z,100641.56
2024-03-05T11:47:25.139Z,100650.69
2024-03-05T11:49:56.394Z,100644.78
2024-03-05T11:52:29.109Z,100656.22
2024-03-05T11:55:09.504Z,100657.84
2024-03-05T11:57:40.275Z,100663.41
2024-03-05T12:00:21.583Z,100662.59
2024-03-05T12:02:58.590Z,100654.97
2024-03-05T12:05:33.329Z,100659.38
2024-03-05T12:08:12.300Z,100662.34
2024-03-05T12:10:44.084Z,100668.69
2024-03-05T12:13:22.335Z,100670.19
2024-03-05T12:15:53.304Z,100673.31
2024-03-05T12:18:24.033Z,100676.44
2024-03-05T12:20:56.635Z,100679.66
2024-03-05T12:23:41.141Z,100676.91
2024-03-05T12:26:16.330Z,100690.66
2024-03-05T12:28:47.153Z,100695.38
2024-03-05T12:31:18.023Z,100703.38
2024-03-05T12:33:49.078Z,100695.38
2024-03-05T12:36:20.168Z,100699.66
2024-03-05T12:38:50.610Z,100704.41
2024-03-05T12:41:24.649Z,100701.97
2024-03-05T12:43:59.517Z,100710.19
2024-03-05T12:46:30.187Z,100702.91
2024-03-05T12:49:02.313Z,100714.00
2024-03-05T12:51:34.284Z,100710.41
2024-03-05T12:54:12.638Z,100702.53
2024-03-05T12:56:45.574Z,100714.47
2024-03-05T12:59:23.112Z,100718.38
2024-03-05T13:01:54.219Z,100728.34
2024-03-05T13:04:25.194Z,100732.47
2024-03-05T13:06:57.134Z,100733.88
2024-03-05T13:09:27.947Z,100735.25
2024-03-05T13:11:59.115Z,100743.34
2024-03-05T13:14:30.020Z,100749.22
2024-03-05T13:17:02.289Z,100754.88
2024-03-05T13:19:33.086Z,100761.13
2024-03-05T13:22:03.928Z,100760.16
2024-03-05T13:24:37.820Z,100764.91
2024-03-05T13:27:09.050Z,100773.56
2024-03-05T13:29:39.372Z,100775.88
2024-03-05T13:32:10.851Z,100773.28
2024-03-05T13:34:41.599Z,100774.31
2024-03-05T13:37:12.898Z,100777.44
2024-03-05T13:39:47.517Z,100783.00
2024-03-05T13:42:18.452Z,100787.38
2024-03-05T13:44:49.219Z,100788.59
2024-03-05T13:47:20.777Z,100790.88
2024-03-05T13:49:51.859Z,100787.31
2024-03-05T13:52:22.703Z,100783.13
2024-03-05T13:54:53.539Z,100798.78
2024-03-05T13:57:24.227Z,100795.34
2024-03-05T13:59:55.053Z,100796.56
2024-03-05T14:02:26.588Z,100809.28
2024-03-05T14:04:56.924Z,100798.59
2024-03-05T14:07:27.573Z,100804.88
2024-03-05T14:09:59.947Z,100806.16
2024-03-05T14:12:34.604Z,100813.47
2024-03-05T14:15:12.756Z,100805.47
2024-03-05T14:17:44.018Z,100805.38
2024-03-05T14:20:16.731Z,100815.75
2024-03-05T14:22:47.900Z,100816.44
2024-03-05T14:25:21.714Z,100818.72
2024-03-05T14:27:52.522Z,100823.94
2024-03-05T14:30:23.268Z,100826.84
2024-03-05T14:32:54.162Z,100837.38
2024-03-05T14:35:26.276Z,100832.28
2024-03-05T14:39:41.744Z,100834.03
2024-03-05T14:42:13.931Z,100839.50
2024-03-05T14:44:45.013Z,100847.47
2024-03-05T14:47:17.061Z,100843.19
2024-03-05T14:49:49.132Z,100849.28
2024-03-05T14:52:20.333Z,100853.41
2024-03-05T14:54:51.387Z,100853.06
2024-03-05T14:57:22.186Z,100863.56
2024-03-05T14:59:52.921Z,100859.34
2024-03-05T15:02:23.966Z,100861.97
2024-03-05T15:04:54.484Z,100859.75
2024-03-05T15:07:25.916Z,100858.47
2024-03-05T15:09:57.399Z,100866.63
2024-03-05T15:12:28.544Z,100868.88
2024-03-05T15:14:59.489Z,100871.50
2024-03-05T15:17:30.177Z,100869.03
2024-03-05T15:20:02.700Z,100876.19
2024-03-05T15:22:33.647Z,100879.72
2024-03-05T15:25:04.523Z,100880.53
2024-03-05T15:27:35.286Z,100889.66
2024-03-05T15:30:16.166Z,100879.41
2024-03-05T15:32:51.042Z,100877.97
2024-03-05T15:35:26.487Z,100875.53
2024-03-05T15:38:02.717Z,100873.38
2024-03-05T15:40:36.004Z,100868.63
2024-03-05T15:43:08.597Z,100878.91
2024-03-05T15:45:41.508Z,100871.41
2024-03-05T15:48:13.315Z,100872.41
2024-03-05T15:50:44.693Z,100871.13
2024-03-05T15:53:15.680Z,100866.41
2024-03-05T15:55:48.385Z,100865.59
2024-03-05T15:58:45.079Z,100865.25
2024-03-05T16:01:16.210Z,100862.16
2024-03-05T16:03:58.215Z,100865.91
2024-03-05T16:06:37.724Z,100867.88
2024-03-05T16:09:08.359Z,100868.91
2024-03-05T16:11:40.826Z,100875.38
2024-03-05T16:14:12.073Z,100868.84
2024-03-05T16:16:43.036Z,100863.97
2024-03-05T16:19:16.964Z,100872.94
2024-03-05T16:21:52.844Z,100862.34
2024-03-05T16:24:23.857Z,100854.03
2024-03-05T16:26:57.630Z,100854.03
2024-03-05T16:29:28.629Z,100847.00
2024-03-05T16:32:01.358Z,100850.59
2024-03-05T16:34:32.210Z,100845.25
2024-03-05T16:37:02.840Z,100848.47
2024-03-05T16:39:33.555Z,100834.81
2024-03-05T16:42:04.014Z,100830.22
2024-03-05T16:44:35.217Z,100837.72
2024-03-05T16:47:06.541Z,100840.84
2024-03-05T16:49:37.923Z,100838.06
2024-03-05T16:52:10.223Z,100835.97
2024-03-05T16:54:41.091Z,100829.75
2024-03-05T16:57:13.671Z,100834.03
2024-03-05T16:59:45.276Z,100827.66
2024-03-05T17:02:17.973Z,100837.81
2024-03-05T17:04:50.930Z,100831.09
2024-03-05T17:07:21.759Z,100828.59
2024-03-05T17:09:52.768Z,100824.56
2024-03-05T17:12:23.893Z,100822.94
2024-03-05T17:14:54.359Z,100821.31
2024-03-05T17:17:24.994Z,100805.47
2024-03-05T17:19:59.362Z,100809.41
2024-03-05T17:22:31.713Z,100796.84
2024-03-05T17:25:04.311Z,100791.16
2024-03-05T17:27:37.138Z,100794.38
2024-03-05T17:30:13.586Z,100791.63
2024-03-05T17:32:45.861Z,100785.59
2024-03-05T17:35:18.217Z,100779.75
2024-03-05T17:37:49.763Z,100776.97
2024-03-05T17:40:20.431Z,100779.25
2024-03-05T17:42:52.563Z,100776.00
2024-03-05T17:45:23.546Z,100781.56
2024-03-05T17:47:55.048Z,100768.06
2024-03-05T17:50:26.746Z,100778.66
2024-03-05T17:52:57.548Z,100774.25
2024-03-05T17:55:28.730Z,100770.53
2024-03-05T17:57:59.675Z,100770.22
2024-03-05T18:00:31.116Z,100769.03
2024-03-05T18:03:07.866Z,100763.50
2024-03-05T18:05:38.591Z,100763.31
2024-03-05T18:08:09.527Z,100757.50
2024-03-05T18:10:40.907Z,100754.41
2024-03-05T18:13:13.023Z,100742.16
2024-03-05T18:15:44.500Z,100737.41
2024-03-05T18:18:17.645Z,100731.75
2024-03-05T18:20:48.964Z,100735.47
2024-03-05T18:23:19.848Z,100729.81
2024-03-05T18:25:51.685Z,100732.22
2024-03-05T18:28:25.575Z,100737.63
2024-03-05T18:30:57.511Z,100726.56
2024-03-05T18:33:28.663Z,100724.94
2024-03-05T18:36:03.029Z,100729.66
2024-03-05T18:38:34.310Z,100732.78
2024-03-05T18:41:06.033Z,100733.56
2024-03-05T18:43:37.149Z,100728.03
2024-03-05T18:46:10.031Z,100722.84
2024-03-05T18:48:40.723Z,100717.91
2024-03-05T18:51:13.365Z,100713.72
2024-03-05T18:53:49.423Z,100721.03
2024-03-05T18:56:21.069Z,100714.53
2024-03-05T18:58:52.259Z,100706.34
2024-03-05T19:01:23.032Z,100710.59
2024-03-05T19:04:01.423Z,100710.59
2024-03-05T19:06:39.952Z,100702.16
2024-03-05T19:09:12.277Z,100697.56
2024-03-05T19:11:46.559Z,100690.75
2024-03-05T19:14:19.149Z,100691.88
2024-03-05T19:16:52.621Z,100683.25
2024-03-05T19:19:23.399Z,100681.28
2024-03-05T19:21:54.627Z,100679.19
2024-03-05T19:24:25.251Z,100680.34
2024-03-05T19:26:57.020Z,100682.31
2024-03-05T19:29:30.166Z,100673.16
2024-03-05T19:32:00.631Z,100680.69
2024-03-05T19:34:31.561Z,100671.69
2024-03-05T19:37:02.238Z,100668.44
2024-03-05T19:39:33.114Z,100666.34
2024-03-05T19:42:04.463Z,100669.13
2024-03-05T19:44:36.109Z,100659.19
2024-03-05T19:47:07.005Z,100662.78
2024-03-05T19:49:38.528Z,100662.78
2024-03-05T19:52:10.160Z,100669.91
2024-03-05T19:54:40.993Z,100669.78
2024-03-05T19:57:12.197Z,100664.25
2024-03-05T19:59:43.030Z,100667.50
2024-03-05T20:02:14.083Z,100673.03
2024-03-05T20:04:45.095Z,100667.50
2024-03-05T20:07:17.100Z,100670.28
2024-03-05T20:09:48.729Z,100671.09
2024-03-05T20:12:19.581Z,100667.16
2024-03-05T20:14:51.093Z,100666.00
2024-03-05T20:17:24.223Z,100669.00
2024-03-05T20:19:56.467Z,100668.19
2024-03-05T20:22:31.460Z,100670.78
2024-03-05T20:25:03.643Z,100661.59
2024-03-05T20:27:34.769Z,100657.41
2024-03-05T20:30:15.650Z,100661.84
2024-03-05T20:32:48.411Z,100662.63
2024-03-05T20:35:20.557Z,100660.97
2024-03-05T20:37:53.633Z,100665.09
2024-03-05T20:40:26.434Z,100663.97
2024-03-05T20:42:57.777Z,100660.19
2024-03-05T20:45:29.128Z,100661.69
2024-03-05T20:47:59.869Z,100658.09
2024-03-05T20:50:31.814Z,100659.06
2024-03-05T20:53:02.629Z,100663.09
2024-03-05T20:55:33.936Z,100665.25
2024-03-05T20:58:04.828Z,100657.50
2024-03-05T21:00:35.804Z,100659.00
2024-03-05T21:03:07.055Z,100656.66
2024-03-05T21:05:37.558Z,100649.84
2024-03-05T21:08:09.285Z,100651.28
2024-03-05T21:10:40.284Z,100658.50
2024-03-05T21:13:11.847Z,100664.38
2024-03-05T21:15:42.731Z,100669.38
2024-03-05T21:18:13.988Z,100665.44
2024-03-05T21:20:45.013Z,100669.72
2024-03-05T21:23:18.444Z,100667.13
2024-03-05T21:26:02.712Z,100670.38
2024-03-05T21:28:41.037Z,100668.75
2024-03-05T21:31:12.317Z,100682.13
2024-03-05T21:33:43.139Z,100688.16
2024-03-05T21:36:13.996Z,100680.06
2024-03-05T21:38:44.727Z,100677.28
2024-03-05T21:41:16.078Z,100688.50
2024-03-05T21:43:47.674Z,100690.66
2024-03-05T21:46:18.585Z,100690.97
2024-03-05T21:48:49.631Z,100694.22
2024-03-05T21:51:20.661Z,100689.03
2024-03-05T21:53:51.650Z,100696.38
2024-03-05T21:56:22.382Z,100698.50
2024-03-05T21:58:53.384Z,100704.50
2024-03-05T22:01:24.171Z,100705.66
2024-03-05T22:03:54.963Z,100709.75
2024-03-05T22:06:25.646Z,100721.97
2024-03-05T22:09:00.132Z,100730.09
2024-03-05T22:11:31.365Z,100719.50
2024-03-05T22:14:02.820Z,100734.97
2024-03-05T22:16:33.658Z,100735.75
2024-03-05T22:19:29.552Z,100752.59
2024-03-05T22:22:00.261Z,100751.09
2024-03-05T22:24:31.051Z,100757.13
2024-03-05T22:27:01.864Z,100758.94
2024-03-05T22:29:33.879Z,100760.91
2024-03-05T22:32:04.394Z,100766.44
2024-03-05T22:34:37.061Z,100769.88
2024-03-05T22:37:08.168Z,100776.03
2024-03-05T22:39:40.415Z,100775.97
2024-03-05T22:42:11.208Z,100780.06
2024-03-05T22:44:43.712Z,100781.56
2024-03-05T22:47:14.654Z,100792.63
2024-03-05T22:49:47.004Z,100794.13
2024-03-05T22:52:19.638Z,100795.59
2024-03-05T22:54:50.826Z,100806.88
2024-03-05T22:57:21.759Z,100798.34
2024-03-05T22:59:52.224Z,100804.56
2024-03-05T23:02:24.708Z,100804.09
2024-03-05T23:04:55.856Z,100805.03
2024-03-05T23:07:27.182Z,100810.25
2024-03-05T23:09:57.867Z,100810.09
2024-03-05T23:12:28.656Z,100817.78
2024-03-05T23:15:00.184Z,100816.97
2024-03-05T23:17:30.869Z,100811.44
2024-03-05T23:20:01.738Z,100832.75
2024-03-05T23:22:32.510Z,100828.53
2024-03-05T23:25:03.347Z,100840.75
2024-03-05T23:27:34.032Z,100835.03
2024-03-05T23:30:07.415Z,100838.16
2024-03-05T23:32:38.232Z,100844.84
2024-03-05T23:35:09.917Z,100847.59
2024-03-05T23:37:40.936Z,100857.19
2024-03-05T23:40:13.239Z,100857.06
2024-03-05T23:42:44.158Z,100857.72
2024-03-05T23:45:15.141Z,100866.34
2024-03-05T23:47:46.066Z,100869.78
2024-03-05T23:50:17.111Z,100875.00
2024-03-05T23:52:47.867Z,100881.69
2024-03-05T23:55:18.782Z,100882.81
2024-03-05T23:57:49.602Z,100885.59
